Time;durP1;ratioP1;P1;durP2;ratioP2;P2;SDS_P1;SDS_P2;PMS_P1;PMS_P2;Temp;Humidity;BMP_temperature;BMP_pressure;BME280_temperature;BME280_humidity;BME280_pressure;Samples;Min_cycle;Max_cycle;Signal;HPM_P1;HPM_P2
2022/03/27 00:02:18;;;;;;;14.03;10.00;;;7.00;99.90;;;;;;5124996;27;20043;-75
2022/03/27 00:04:45;;;;;;;12.87;9.77;;;7.10;99.90;;;;;;5106323;27;20057;-75
2022/03/27 00:07:11;;;;;;;14.13;8.67;;;7.10;99.90;;;;;;5113180;27;20069;-75
2022/03/27 00:09:37;;;;;;;14.97;9.30;;;7.10;99.90;;;;;;5111799;27;20081;-76
2022/03/27 00:12:04;;;;;;;19.53;13.47;;;7.20;99.90;;;;;;5118031;27;20042;-77
2022/03/27 00:14:30;;;;;;;19.77;13.13;;;7.20;99.90;;;;;;5105296;27;20043;-75
2022/03/27 00:16:56;;;;;;;17.93;12.17;;;7.30;99.90;;;;;;5101745;28;20047;-75
2022/03/27 00:19:21;;;;;;;17.77;11.77;;;7.30;99.90;;;;;;5085188;27;20096;-79
2022/03/27 00:21:49;;;;;;;25.00;12.50;;;7.30;99.90;;;;;;5115596;27;20505;-76
2022/03/27 00:24:15;;;;;;;18.93;12.27;;;7.40;99.90;;;;;;5089489;27;20050;-77
2022/03/27 00:26:41;;;;;;;16.90;11.47;;;7.40;99.90;;;;;;5111582;27;20046;-75
2022/03/27 00:29:07;;;;;;;22.93;12.03;;;7.50;99.90;;;;;;5125629;27;20416;-77
2022/03/27 00:31:37;;;;;;;20.53;11.83;;;7.60;99.90;;;;;;5100298;28;20047;-75
2022/03/27 00:34:04;;;;;;;14.30;10.10;;;7.60;99.90;;;;;;5107580;27;20035;-77
2022/03/27 00:36:30;;;;;;;16.43;11.13;;;7.60;99.90;;;;;;5107895;27;20069;-76
2022/03/27 00:38:57;;;;;;;14.40;10.07;;;7.60;99.90;;;;;;5132598;27;20493;-78
2022/03/27 00:41:24;;;;;;;16.70;10.70;;;7.70;99.90;;;;;;5112670;27;20043;-75
2022/03/27 00:43:50;;;;;;;18.47;11.27;;;7.70;99.90;;;;;;5114730;27;20076;-76
2022/03/27 00:46:15;;;;;;;14.13;10.33;;;7.70;99.90;;;;;;5107196;27;20051;-75
2022/03/27 00:48:41;;;;;;;17.20;11.47;;;7.70;99.90;;;;;;5117399;27;20040;-75
2022/03/27 00:51:07;;;;;;;18.17;10.50;;;7.70;99.90;;;;;;5100614;27;20047;-75
2022/03/27 00:53:33;;;;;;;17.43;10.90;;;7.70;99.90;;;;;;5094340;27;20047;-75
2022/03/27 00:56:00;;;;;;;16.30;10.40;;;7.70;99.90;;;;;;5113164;27;20091;-76
2022/03/27 00:58:26;;;;;;;19.83;10.30;;;7.70;99.90;;;;;;5106449;28;20463;-75
2022/03/27 01:01:02;;;;;;;18.73;11.10;;;7.70;99.90;;;;;;5094582;27;20248;-75
2022/03/27 01:03:30;;;;;;;17.83;11.37;;;7.70;99.90;;;;;;5115255;27;20046;-75
2022/03/27 01:05:59;;;;;;;17.57;10.97;;;7.70;99.90;;;;;;5116650;27;20445;-76
2022/03/27 01:11:14;;;;;;;16.53;10.43;;;7.70;99.90;;;;;;5113061;27;20051;-75
2022/03/27 01:13:48;;;;;;;19.43;11.03;;;7.80;99.90;;;;;;5105677;27;20047;-75
2022/03/27 01:16:31;;;;;;;18.55;11.68;;;7.80;99.90;;;;;;5108608;27;20061;-75
2022/03/27 01:18:57;;;;;;;21.97;12.00;;;7.80;99.90;;;;;;5113895;27;20039;-78
2022/03/27 01:21:25;;;;;;;19.73;11.97;;;7.80;99.90;;;;;;5114160;27;20059;-75
2022/03/27 01:23:52;;;;;;;19.10;11.90;;;7.70;99.90;;;;;;5102901;27;20070;-75
2022/03/27 01:26:18;;;;;;;18.40;11.63;;;7.70;99.90;;;;;;5109703;27;20043;-75
2022/03/27 01:28:44;;;;;;;18.27;11.30;;;7.70;99.90;;;;;;5114045;27;20540;-75
2022/03/27 01:31:10;;;;;;;20.73;11.17;;;7.80;99.90;;;;;;5105096;27;20074;-75
2022/03/27 01:33:35;;;;;;;15.00;10.57;;;7.80;99.90;;;;;;5110697;27;20039;-75
2022/03/27 01:36:01;;;;;;;18.77;12.47;;;7.80;99.90;;;;;;5105255;28;20100;-75
2022/03/27 01:38:29;;;;;;;19.53;12.30;;;7.80;99.90;;;;;;5107778;27;20120;-76
2022/03/27 01:40:54;;;;;;;18.17;11.60;;;7.80;99.90;;;;;;5114059;27;20495;-75
2022/03/27 01:43:20;;;;;;;18.37;12.13;;;7.80;99.90;;;;;;5096814;28;20122;-75
2022/03/27 01:45:46;;;;;;;21.37;11.67;;;7.80;99.90;;;;;;5101439;27;20051;-75
2022/03/27 01:48:12;;;;;;;19.63;11.97;;;7.80;99.90;;;;;;5114135;27;20101;-76
2022/03/27 01:50:38;;;;;;;19.20;12.00;;;7.80;99.90;;;;;;5108855;27;20130;-75
2022/03/27 01:53:04;;;;;;;22.20;11.47;;;7.70;99.90;;;;;;5115046;27;20122;-77
2022/03/27 01:55:31;;;;;;;17.90;11.87;;;7.70;99.90;;;;;;5095291;27;20042;-77
2022/03/27 01:57:56;;;;;;;18.60;11.90;;;7.70;99.90;;;;;;5114634;27;20063;-75
2022/03/27 02:00:22;;;;;;;19.30;11.43;;;7.60;99.90;;;;;;5104368;27;20098;-75
2022/03/27 02:02:48;;;;;;;21.27;11.97;;;7.60;99.90;;;;;;5113840;28;20528;-75
2022/03/27 02:05:14;;;;;;;17.63;12.43;;;7.50;99.90;;;;;;5105809;28;20043;-77
2022/03/27 02:07:42;;;;;;;17.87;11.63;;;7.40;99.90;;;;;;5101522;28;20043;-75
2022/03/27 02:10:09;;;;;;;19.90;12.10;;;7.40;99.90;;;;;;5113645;28;20081;-75
2022/03/27 02:12:36;;;;;;;20.00;12.47;;;7.30;99.90;;;;;;5103504;28;20036;-75
2022/03/27 02:15:04;;;;;;;20.37;12.03;;;7.30;99.90;;;;;;5108812;28;20573;-76
2022/03/27 02:17:30;;;;;;;19.27;11.67;;;7.30;99.90;;;;;;5106243;28;20049;-75
2022/03/27 02:19:56;;;;;;;17.47;11.53;;;7.20;99.90;;;;;;5121161;28;20051;-75
2022/03/27 02:22:21;;;;;;;17.43;11.27;;;7.20;99.90;;;;;;5107034;28;20114;-75
2022/03/27 02:24:48;;;;;;;18.57;10.90;;;7.10;99.90;;;;;;5113272;28;20519;-75
2022/03/27 02:27:14;;;;;;;15.27;10.70;;;7.10;99.90;;;;;;5098684;28;20050;-76
2022/03/27 02:29:41;;;;;;;16.37;10.47;;;7.00;99.90;;;;;;5113255;28;20043;-75
2022/03/27 02:32:08;;;;;;;15.67;10.37;;;6.90;99.90;;;;;;5111486;28;20416;-78
2022/03/27 02:34:34;;;;;;;18.57;11.17;;;6.80;99.90;;;;;;5114009;28;20047;-75
2022/03/27 02:36:59;;;;;;;15.50;10.80;;;6.70;99.90;;;;;;5110112;28;20562;-76
2022/03/27 02:39:26;;;;;;;16.23;10.27;;;6.60;99.90;;;;;;5132599;28;20067;-75
2022/03/27 02:41:52;;;;;;;14.77;9.80;;;6.50;99.90;;;;;;5111950;28;20050;-75
2022/03/27 02:44:19;;;;;;;14.83;9.53;;;6.50;99.90;;;;;;5098430;28;20477;-75
2022/03/27 02:46:46;;;;;;;17.63;10.20;;;6.40;99.90;;;;;;5112242;28;20050;-75
2022/03/27 02:49:12;;;;;;;15.53;10.67;;;6.30;99.90;;;;;;5113785;28;20051;-77
2022/03/27 02:51:39;;;;;;;16.50;11.00;;;6.20;99.90;;;;;;5113075;28;20049;-75
2022/03/27 02:54:06;;;;;;;17.97;10.90;;;6.10;99.90;;;;;;5112186;28;20078;-76
2022/03/27 02:56:32;;;;;;;16.63;10.67;;;6.00;99.90;;;;;;5101355;28;20043;-75
2022/03/27 02:58:58;;;;;;;17.53;10.50;;;5.90;99.90;;;;;;5100381;28;20061;-77
2022/03/27 03:01:24;;;;;;;19.03;10.97;;;5.90;99.90;;;;;;5112920;28;20062;-75
2022/03/27 03:03:51;;;;;;;21.17;12.07;;;5.80;99.90;;;;;;5089628;27;20485;-76
2022/03/27 03:06:18;;;;;;;18.73;11.00;;;5.70;99.90;;;;;;5112903;27;20464;-75
2022/03/27 03:08:44;;;;;;;16.47;11.17;;;5.70;99.90;;;;;;5113265;27;20047;-75
2022/03/27 03:11:13;;;;;;;17.70;10.80;;;5.60;99.90;;;;;;5117035;27;20174;-75
2022/03/27 03:13:39;;;;;;;14.37;11.13;;;5.50;99.90;;;;;;5117907;27;20031;-75
2022/03/27 03:16:07;;;;;;;18.07;11.30;;;5.50;99.90;;;;;;5106844;28;20457;-75
2022/03/27 03:18:34;;;;;;;21.90;12.17;;;5.40;99.90;;;;;;5093737;27;20050;-75
2022/03/27 03:21:02;;;;;;;18.07;11.07;;;5.40;99.90;;;;;;5132917;27;20431;-75
2022/03/27 03:23:28;;;;;;;20.00;12.00;;;5.40;99.90;;;;;;5116375;27;20513;-75
2022/03/27 03:25:55;;;;;;;19.67;11.33;;;5.40;99.90;;;;;;5117762;27;20035;-76
2022/03/27 03:28:20;;;;;;;28.17;11.73;;;5.30;99.90;;;;;;5112349;28;20532;-77
2022/03/27 03:30:46;;;;;;;17.23;10.90;;;5.30;99.90;;;;;;5117604;27;20130;-76
2022/03/27 03:33:12;;;;;;;16.10;11.40;;;5.30;99.90;;;;;;5102528;28;20107;-75
2022/03/27 03:35:39;;;;;;;14.73;10.27;;;5.30;99.90;;;;;;5110507;27;20055;-75
2022/03/27 03:38:06;;;;;;;18.80;10.90;;;5.30;99.90;;;;;;5107603;27;20044;-75
2022/03/27 03:40:32;;;;;;;18.90;11.57;;;5.30;99.90;;;;;;5116350;27;20054;-75
2022/03/27 03:42:58;;;;;;;20.10;12.30;;;5.30;99.90;;;;;;5097936;27;20043;-75
2022/03/27 03:45:24;;;;;;;17.70;11.30;;;5.30;99.90;;;;;;5116495;27;20043;-75
2022/03/27 03:47:50;;;;;;;21.43;12.10;;;5.40;99.90;;;;;;5115605;27;20055;-75
2022/03/27 03:50:15;;;;;;;19.47;11.83;;;5.40;99.90;;;;;;5117394;27;20066;-75
2022/03/27 03:52:41;;;;;;;20.57;12.40;;;5.40;99.90;;;;;;5109904;27;20051;-75
2022/03/27 03:55:09;;;;;;;17.30;11.33;;;5.30;99.90;;;;;;5110624;27;20078;-76
2022/03/27 03:57:34;;;;;;;21.30;12.03;;;5.40;99.90;;;;;;5109831;28;20055;-75
2022/03/27 04:00:00;;;;;;;17.83;11.10;;;5.40;99.90;;;;;;5130408;27;20113;-75
2022/03/27 04:02:26;;;;;;;22.67;12.93;;;5.40;99.90;;;;;;5113926;28;20044;-75
2022/03/27 04:04:51;;;;;;;20.03;11.87;;;5.40;99.90;;;;;;5101169;28;20039;-75
2022/03/27 04:07:17;;;;;;;24.37;12.73;;;5.40;99.90;;;;;;5115042;27;20042;-76
2022/03/27 04:09:43;;;;;;;20.10;12.17;;;5.50;99.90;;;;;;5097965;28;20043;-75
2022/03/27 04:12:12;;;;;;;18.33;11.23;;;5.50;99.90;;;;;;5095149;28;20122;-75
2022/03/27 04:14:39;;;;;;;22.40;12.97;;;5.60;99.90;;;;;;5088463;28;20048;-76
2022/03/27 04:17:04;;;;;;;24.17;12.67;;;5.60;99.90;;;;;;5095242;28;20455;-75
2022/03/27 04:19:30;;;;;;;20.00;11.97;;;5.60;99.90;;;;;;5087829;28;20039;-75
2022/03/27 04:21:56;;;;;;;22.93;13.33;;;5.70;99.90;;;;;;5081004;28;20044;-75
2022/03/27 04:24:22;;;;;;;27.13;12.47;;;5.80;99.90;;;;;;5081952;28;20043;-75
2022/03/27 04:26:48;;;;;;;18.00;11.10;;;5.80;99.90;;;;;;5091868;28;20049;-75
2022/03/27 04:29:15;;;;;;;23.50;11.93;;;5.80;99.90;;;;;;5072047;28;20407;-75
2022/03/27 04:31:41;;;;;;;28.87;12.63;;;5.90;99.90;;;;;;5070865;28;20058;-75
2022/03/27 04:34:08;;;;;;;22.13;11.70;;;5.90;99.90;;;;;;5110624;28;20043;-75
2022/03/27 04:36:34;;;;;;;24.23;12.57;;;5.90;99.90;;;;;;5083040;28;20079;-78
2022/03/27 04:39:00;;;;;;;22.73;11.40;;;5.90;99.90;;;;;;5093554;28;20043;-75
2022/03/27 04:41:26;;;;;;;20.23;11.10;;;5.90;99.90;;;;;;5075003;28;20039;-75
2022/03/27 04:43:51;;;;;;;22.27;10.90;;;5.90;99.90;;;;;;5093216;28;20039;-75
2022/03/27 04:46:18;;;;;;;25.07;11.80;;;6.00;99.90;;;;;;5082949;28;20070;-76
2022/03/27 04:48:45;;;;;;;27.97;11.90;;;6.00;99.90;;;;;;5094953;28;20577;-74
2022/03/27 04:51:11;;;;;;;25.67;11.03;;;6.00;99.90;;;;;;5094011;28;20035;-77
2022/03/27 04:53:37;;;;;;;37.27;11.80;;;6.10;99.90;;;;;;5089609;28;20113;-75
2022/03/27 04:56:04;;;;;;;26.47;10.30;;;6.10;99.90;;;;;;5086624;28;20043;-75
2022/03/27 04:58:29;;;;;;;26.23;11.30;;;6.20;99.90;;;;;;5085515;28;20443;-75
2022/03/27 05:00:55;;;;;;;33.77;11.03;;;6.30;99.90;;;;;;5084869;28;20154;-77
2022/03/27 05:03:22;;;;;;;30.90;11.57;;;6.30;99.90;;;;;;5086128;28;20100;-75
2022/03/27 05:05:48;;;;;;;30.30;11.00;;;6.40;99.90;;;;;;5088736;28;20059;-74
2022/03/27 05:08:14;;;;;;;32.77;11.93;;;6.40;99.90;;;;;;5072781;28;20811;-75
2022/03/27 05:10:40;;;;;;;29.27;11.33;;;6.50;99.90;;;;;;5094521;28;20055;-75
2022/03/27 05:13:07;;;;;;;36.13;11.53;;;6.60;99.90;;;;;;5079844;28;20039;-75
2022/03/27 05:15:32;;;;;;;29.23;11.07;;;6.60;99.90;;;;;;5087691;28;20051;-75
2022/03/27 05:17:58;;;;;;;33.67;10.80;;;6.60;99.90;;;;;;5079016;28;20417;-75
2022/03/27 05:20:27;;;;;;;36.10;10.83;;;6.70;99.90;;;;;;5090919;28;20046;-75
2022/03/27 05:22:54;;;;;;;34.77;11.07;;;6.70;99.90;;;;;;5087264;28;20073;-75
2022/03/27 05:25:20;;;;;;;31.73;10.90;;;6.80;99.90;;;;;;5064259;28;20401;-77
2022/03/27 05:27:48;;;;;;;36.57;10.73;;;6.80;99.90;;;;;;5090572;28;20043;-74
2022/03/27 05:30:16;;;;;;;33.30;10.53;;;6.80;99.90;;;;;;5071689;28;20047;-76
2022/03/27 05:32:42;;;;;;;44.10;10.53;;;6.90;99.90;;;;;;5089362;28;20040;-75
2022/03/27 05:35:08;;;;;;;38.63;11.90;;;6.90;99.90;;;;;;5104764;28;20050;-74
2022/03/27 05:37:39;;;;;;;35.80;10.60;;;7.00;99.90;;;;;;5076937;28;20044;-75
2022/03/27 05:40:08;;;;;;;40.93;10.43;;;7.00;99.90;;;;;;5063922;28;20480;-74
2022/03/27 05:42:34;;;;;;;30.73;10.73;;;7.00;99.90;;;;;;5096063;28;20048;-76
2022/03/27 05:44:59;;;;;;;36.10;11.67;;;7.10;99.90;;;;;;5094822;28;20405;-74
2022/03/27 05:47:25;;;;;;;37.47;10.10;;;7.10;99.90;;;;;;5094881;28;20040;-76
2022/03/27 05:49:51;;;;;;;39.07;10.87;;;7.10;99.90;;;;;;5096871;28;20074;-75
2022/03/27 05:52:17;;;;;;;34.83;11.03;;;7.10;99.90;;;;;;5091788;28;20062;-75
2022/03/27 05:54:44;;;;;;;47.63;11.20;;;7.20;99.90;;;;;;5097177;28;20047;-75
2022/03/27 05:57:10;;;;;;;47.27;13.17;;;7.20;99.90;;;;;;5093513;28;20055;-75
2022/03/27 05:59:35;;;;;;;47.07;11.97;;;7.30;99.90;;;;;;5085554;28;20070;-75
2022/03/27 06:02:01;;;;;;;38.60;13.10;;;7.30;99.90;;;;;;5087765;28;20047;-75
2022/03/27 06:04:27;;;;;;;41.03;12.27;;;7.30;99.90;;;;;;5091374;28;20086;-76
2022/03/27 06:06:53;;;;;;;56.00;12.77;;;7.30;99.90;;;;;;5095943;28;20513;-75
2022/03/27 06:09:19;;;;;;;40.73;12.27;;;7.40;99.90;;;;;;5099863;28;20039;-77
2022/03/27 06:11:46;;;;;;;43.30;12.27;;;7.40;99.90;;;;;;5112973;27;20063;-75
2022/03/27 06:14:12;;;;;;;48.83;12.90;;;7.50;99.90;;;;;;5108347;27;20119;-77
2022/03/27 06:16:37;;;;;;;52.03;12.67;;;7.40;99.90;;;;;;5111240;28;20073;-76
2022/03/27 06:19:04;;;;;;;36.87;11.10;;;7.50;99.90;;;;;;5116137;28;20042;-77
2022/03/27 06:21:29;;;;;;;45.77;10.43;;;7.60;99.90;;;;;;5111465;28;20043;-76
2022/03/27 06:23:55;;;;;;;51.80;12.63;;;7.60;99.90;;;;;;5095984;28;20736;-78
2022/03/27 06:26:21;;;;;;;51.33;11.53;;;7.60;99.90;;;;;;5114555;28;20051;-75
2022/03/27 06:28:48;;;;;;;44.77;10.80;;;7.70;99.90;;;;;;5118714;28;20050;-75
2022/03/27 06:31:14;;;;;;;51.17;11.97;;;7.70;99.90;;;;;;5108700;28;20051;-75
2022/03/27 06:33:39;;;;;;;41.17;10.40;;;7.80;99.90;;;;;;5110320;28;20040;-77
2022/03/27 06:36:05;;;;;;;54.90;12.77;;;7.80;99.90;;;;;;5108739;28;20126;-75
2022/03/27 06:38:31;;;;;;;42.57;10.67;;;7.80;99.90;;;;;;5101022;27;20054;-75
2022/03/27 06:40:57;;;;;;;39.40;10.50;;;7.90;99.90;;;;;;5109042;27;20043;-75
2022/03/27 06:43:23;;;;;;;39.93;10.47;;;7.90;99.90;;;;;;5108408;28;20043;-75
2022/03/27 06:45:50;;;;;;;49.27;11.73;;;8.00;99.90;;;;;;5112160;27;20047;-75
2022/03/27 06:48:16;;;;;;;36.17;9.93;;;8.10;99.90;;;;;;5111449;27;20051;-77
2022/03/27 06:50:44;;;;;;;39.83;9.60;;;8.10;99.90;;;;;;5119458;27;20043;-76
2022/03/27 06:53:10;;;;;;;39.17;9.13;;;8.20;99.90;;;;;;5117523;27;20041;-74
2022/03/27 06:55:36;;;;;;;61.27;11.67;;;8.30;99.90;;;;;;5091317;28;20138;-77
2022/03/27 06:58:02;;;;;;;47.70;11.27;;;8.30;99.90;;;;;;5118157;27;20082;-75
2022/03/27 07:03:13;;;;;;;42.63;11.07;;;8.30;99.90;;;;;;5100092;27;20138;-78
2022/03/27 07:05:41;;;;;;;48.03;13.87;;;8.30;99.90;;;;;;5113231;27;20051;-76
2022/03/27 07:08:08;;;;;;;53.20;13.00;;;8.40;99.90;;;;;;5096252;27;20122;-78
2022/03/27 07:10:34;;;;;;;42.90;12.07;;;8.50;99.90;;;;;;5113523;27;20047;-75
2022/03/27 07:13:00;;;;;;;45.23;13.07;;;8.60;99.90;;;;;;5109864;27;20035;-75
2022/03/27 07:15:26;;;;;;;48.67;12.97;;;8.60;99.90;;;;;;5117022;27;20058;-75
2022/03/27 07:17:53;;;;;;;41.60;12.17;;;8.70;99.90;;;;;;5114489;27;20051;-75
2022/03/27 07:20:24;;;;;;;38.63;10.87;;;8.70;99.90;;;;;;5113377;27;20051;-78
2022/03/27 07:22:50;;;;;;;43.77;11.23;;;8.80;99.90;;;;;;5113231;27;20047;-75
2022/03/27 07:25:16;;;;;;;36.77;9.93;;;8.80;99.90;;;;;;5113564;27;20051;-76
2022/03/27 07:27:42;;;;;;;39.13;9.33;;;8.90;99.90;;;;;;5122201;27;20043;-75
2022/03/27 07:30:09;;;;;;;50.10;11.20;;;8.90;99.90;;;;;;5122973;27;20047;-75
2022/03/27 07:32:36;;;;;;;44.97;10.03;;;9.00;99.90;;;;;;5115786;27;20043;-80
2022/03/27 07:35:02;;;;;;;44.97;12.20;;;9.00;99.90;;;;;;5121987;27;20047;-75
2022/03/27 07:37:32;;;;;;;48.80;11.80;;;9.10;99.90;;;;;;5118413;27;20051;-75
2022/03/27 07:40:00;;;;;;;48.17;12.17;;;9.10;99.90;;;;;;5110839;27;20055;-76
2022/03/27 07:42:26;;;;;;;51.30;13.33;;;9.10;99.90;;;;;;5113500;27;20062;-75
2022/03/27 07:44:51;;;;;;;55.53;13.33;;;9.10;99.90;;;;;;5109854;27;20493;-77
2022/03/27 07:47:17;;;;;;;46.43;12.80;;;9.10;99.90;;;;;;5116191;27;20075;-75
2022/03/27 07:49:43;;;;;;;44.40;12.50;;;9.20;99.90;;;;;;5114067;27;20050;-75
2022/03/27 07:52:09;;;;;;;43.63;12.10;;;9.20;99.90;;;;;;5115373;27;20043;-75
2022/03/27 07:54:36;;;;;;;42.80;11.73;;;9.20;99.90;;;;;;5115303;27;20053;-75
2022/03/27 07:57:02;;;;;;;49.97;12.30;;;9.30;99.90;;;;;;5120296;27;20079;-78
2022/03/27 07:59:28;;;;;;;42.57;11.97;;;9.40;99.90;;;;;;5117809;27;20039;-76
2022/03/27 08:01:54;;;;;;;49.90;11.90;;;9.50;99.90;;;;;;5107523;28;20047;-75
2022/03/27 08:04:19;;;;;;;48.87;12.40;;;9.70;99.90;;;;;;5117798;27;20043;-74
2022/03/27 08:06:47;;;;;;;43.97;11.50;;;9.90;99.90;;;;;;5091206;28;20044;-78
2022/03/27 08:09:13;;;;;;;38.67;10.93;;;10.20;99.90;;;;;;5116605;27;20095;-76
2022/03/27 08:11:42;;;;;;;46.80;11.87;;;10.40;99.90;;;;;;5089620;27;20050;-76
2022/03/27 08:14:09;;;;;;;47.90;12.37;;;10.50;99.90;;;;;;5116228;27;20039;-75
2022/03/27 08:16:35;;;;;;;52.33;10.77;;;10.90;99.90;;;;;;5108952;27;20051;-78
2022/03/27 08:19:00;;;;;;;44.23;11.50;;;11.20;99.90;;;;;;5112649;27;20088;-79
2022/03/27 08:21:26;;;;;;;42.43;10.17;;;11.60;99.90;;;;;;5087704;27;20114;-75
2022/03/27 08:23:52;;;;;;;48.00;10.60;;;11.90;99.90;;;;;;5108579;28;20103;-75
2022/03/27 08:29:04;;;;;;;46.55;10.48;;;12.00;99.90;;;;;;5110065;27;20054;-77
2022/03/27 08:31:30;;;;;;;37.50;10.00;;;12.10;99.90;;;;;;5111231;27;20054;-77
2022/03/27 08:33:57;;;;;;;39.27;9.20;;;12.30;99.90;;;;;;5107782;27;20042;-77
2022/03/27 08:36:23;;;;;;;39.37;10.00;;;12.60;99.90;;;;;;5113675;27;20068;-78
2022/03/27 08:38:49;;;;;;;38.43;9.53;;;12.80;99.90;;;;;;5106857;27;20130;-75
2022/03/27 08:41:16;;;;;;;42.63;9.03;;;13.10;99.90;;;;;;5092936;27;20079;-76
2022/03/27 08:43:43;;;;;;;41.53;8.87;;;13.80;99.90;;;;;;5128512;27;20420;-75
2022/03/27 08:46:11;;;;;;;39.50;9.00;;;14.30;99.90;;;;;;5118808;27;20664;-75
2022/03/27 08:48:38;;;;;;;45.77;10.17;;;14.60;99.90;;;;;;5106753;27;20316;-76
2022/03/27 08:51:07;;;;;;;44.50;9.50;;;15.10;99.90;;;;;;5102990;27;20055;-78
2022/03/27 08:53:40;;;;;;;44.27;9.00;;;15.50;99.90;;;;;;5110008;27;20047;-76
2022/03/27 08:56:06;;;;;;;36.90;8.77;;;16.10;99.90;;;;;;5095281;27;20043;-78
2022/03/27 08:58:35;;;;;;;35.57;8.07;;;16.50;99.90;;;;;;5112407;27;20062;-78
2022/03/27 09:01:01;;;;;;;35.37;8.10;;;16.70;99.90;;;;;;5129492;27;20039;-77
2022/03/27 09:03:28;;;;;;;40.40;8.40;;;16.60;99.90;;;;;;5108323;27;20054;-76
2022/03/27 09:05:54;;;;;;;42.33;8.10;;;16.60;99.90;;;;;;5112865;27;20043;-79
2022/03/27 09:08:20;;;;;;;38.83;8.37;;;16.50;99.90;;;;;;5107262;27;20116;-77
2022/03/27 09:10:46;;;;;;;37.70;9.23;;;16.40;99.20;;;;;;5094605;27;20037;-78
2022/03/27 09:13:12;;;;;;;38.60;9.53;;;16.30;98.20;;;;;;5108139;27;20099;-75
2022/03/27 09:15:38;;;;;;;35.97;8.50;;;16.20;98.80;;;;;;5088629;27;20088;-77
2022/03/27 09:18:08;;;;;;;37.37;8.60;;;16.30;99.10;;;;;;5099491;27;20048;-80
2022/03/27 09:20:42;;;;;;;39.47;8.73;;;16.20;99.10;;;;;;5095600;27;20040;-79
2022/03/27 09:23:21;;;;;;;35.75;8.40;;;16.20;97.80;;;;;;5110584;27;20118;-76
2022/03/27 09:25:53;;;;;;;33.07;8.40;;;16.10;98.10;;;;;;5110574;27;20058;-77
2022/03/27 09:28:32;;;;;;;39.93;9.50;;;16.10;96.40;;;;;;5102886;27;20255;-77
2022/03/27 09:31:00;;;;;;;27.80;7.20;;;16.60;96.60;;;;;;5106451;28;20043;-77
2022/03/27 09:33:47;;;;;;;34.70;8.27;;;17.50;95.90;;;;;;5104405;27;20039;-77
2022/03/27 09:36:18;;;;;;;29.03;7.63;;;18.50;94.00;;;;;;5096498;27;20051;-76
2022/03/27 09:39:04;;;;;;;28.20;7.10;;;19.50;92.60;;;;;;5116136;27;20076;-76
2022/03/27 09:41:34;;;;;;;30.67;7.07;;;20.30;90.50;;;;;;5102553;27;20118;-76
2022/03/27 09:44:01;;;;;;;30.00;7.07;;;21.10;87.30;;;;;;5109604;27;20038;-77
2022/03/27 09:46:27;;;;;;;29.07;7.93;;;21.70;82.20;;;;;;5088891;27;20123;-76
2022/03/27 09:48:56;;;;;;;26.60;6.80;;;22.30;80.50;;;;;;5102928;27;20071;-76
2022/03/27 09:51:23;;;;;;;25.33;6.83;;;22.60;71.70;;;;;;5122013;27;20535;-77
2022/03/27 09:53:55;;;;;;;27.17;7.20;;;23.30;73.30;;;;;;5106305;27;20049;-79
2022/03/27 09:56:29;;;;;;;31.10;7.80;;;24.10;67.50;;;;;;5108034;27;20449;-78
2022/03/27 09:58:54;;;;;;;24.52;7.25;;;24.50;65.90;;;;;;5107197;27;20051;-79
2022/03/27 10:01:26;;;;;;;23.23;7.27;;;25.00;61.20;;;;;;5107793;27;20043;-79
2022/03/27 10:04:02;;;;;;;27.83;7.80;;;25.20;56.20;;;;;;5107311;28;20517;-79
2022/03/27 10:06:32;;;;;;;28.88;7.38;;;25.60;53.90;;;;;;5114435;27;20453;-77
2022/03/27 10:08:59;;;;;;;24.58;7.28;;;26.00;53.30;;;;;;5091292;28;20051;-80
2022/03/27 10:11:25;;;;;;;27.85;7.80;;;26.20;52.60;;;;;;5106045;28;20540;-77
2022/03/27 10:13:55;;;;;;;23.17;6.60;;;26.60;51.20;;;;;;5100380;27;20039;-78
2022/03/27 10:16:28;;;;;;;25.67;7.13;;;27.00;49.20;;;;;;5104895;28;20031;-77
2022/03/27 10:18:56;;;;;;;22.42;6.65;;;27.30;47.20;;;;;;5109642;28;20055;-76
2022/03/27 10:21:25;;;;;;;27.50;7.65;;;27.40;46.80;;;;;;5104730;28;20512;-77
2022/03/27 10:23:59;;;;;;;23.17;6.80;;;27.70;45.80;;;;;;5083893;28;20482;-79
2022/03/27 10:26:25;;;;;;;27.38;8.02;;;28.00;45.20;;;;;;5109963;28;20704;-77
2022/03/27 10:28:51;;;;;;;25.77;6.95;;;28.10;43.60;;;;;;5087629;28;20055;-78
2022/03/27 10:31:18;;;;;;;24.65;6.95;;;28.10;43.40;;;;;;5107039;28;20039;-78
2022/03/27 10:33:45;;;;;;;27.35;6.97;;;28.10;42.60;;;;;;5112099;28;20441;-77
2022/03/27 10:36:15;;;;;;;25.25;7.40;;;27.60;39.40;;;;;;5112407;28;20511;-78
2022/03/27 10:38:50;;;;;;;24.75;6.93;;;27.50;41.70;;;;;;5116680;28;20130;-78
2022/03/27 10:41:21;;;;;;;20.90;6.55;;;27.70;42.80;;;;;;5104818;28;20480;-79
2022/03/27 10:43:52;;;;;;;23.02;6.75;;;28.10;42.40;;;;;;5104812;28;20154;-80
2022/03/27 10:46:20;;;;;;;25.08;7.13;;;28.10;41.60;;;;;;5082954;28;20063;-77
2022/03/27 10:48:47;;;;;;;30.02;7.75;;;28.20;40.40;;;;;;5105821;28;20118;-77
2022/03/27 10:51:36;;;;;;;22.60;6.72;;;27.90;36.60;;;;;;5120646;28;20093;-78
2022/03/27 10:54:04;;;;;;;21.80;6.32;;;27.10;40.10;;;;;;5133667;27;20396;-77
2022/03/27 10:56:37;;;;;;;22.35;6.38;;;27.20;40.60;;;;;;5111067;28;20051;-77
2022/03/27 10:59:08;;;;;;;22.08;6.35;;;27.40;40.70;;;;;;5113511;28;20126;-77
2022/03/27 11:01:42;;;;;;;21.85;6.65;;;27.30;38.40;;;;;;5109885;28;20099;-79
2022/03/27 11:04:09;;;;;;;21.90;6.47;;;27.50;40.30;;;;;;5113951;28;20039;-78
2022/03/27 11:06:37;;;;;;;23.15;6.28;;;27.60;39.20;;;;;;5090511;28;20047;-77
2022/03/27 11:09:04;;;;;;;23.33;6.82;;;27.60;37.90;;;;;;5108179;28;20039;-77
2022/03/27 11:12:02;;;;;;;22.85;6.90;;;27.20;36.90;;;;;;5095248;28;20055;-75
2022/03/27 11:14:58;;;;;;;22.77;6.03;;;26.60;37.00;;;;;;5115040;28;20043;-80
2022/03/27 11:17:55;;;;;;;21.70;6.97;;;26.00;40.00;;;;;;5105163;28;20099;-77
2022/03/27 11:20:52;;;;;;;22.15;6.53;;;26.20;40.30;;;;;;5083555;28;20039;-77
2022/03/27 11:23:29;;;;;;;26.63;6.80;;;26.80;41.90;;;;;;5101193;28;20748;-77
2022/03/27 11:25:56;;;;;;;21.13;6.65;;;27.10;40.80;;;;;;5124575;27;20117;-78
2022/03/27 11:28:25;;;;;;;19.45;5.70;;;26.90;39.30;;;;;;5094087;27;20047;-78
2022/03/27 11:31:17;;;;;;;23.67;6.85;;;26.70;38.40;;;;;;5110864;27;20078;-78
2022/03/27 11:33:45;;;;;;;25.10;6.60;;;26.70;36.80;;;;;;5107417;27;20036;-77
2022/03/27 11:36:24;;;;;;;25.30;6.28;;;26.30;36.70;;;;;;5137318;27;20047;-77
2022/03/27 11:39:04;;;;;;;19.75;5.78;;;26.00;38.30;;;;;;5107604;27;20420;-78
2022/03/27 11:41:32;;;;;;;22.27;6.35;;;26.10;38.50;;;;;;5103973;27;20078;-77
2022/03/27 11:44:23;;;;;;;23.73;6.07;;;26.00;37.40;;;;;;5104540;27;20040;-78
2022/03/27 11:46:52;;;;;;;19.35;6.20;;;26.10;39.50;;;;;;5107336;27;20039;-77
2022/03/27 11:49:18;;;;;;;18.55;6.47;;;26.10;36.70;;;;;;5110599;27;20049;-76
2022/03/27 11:51:44;;;;;;;21.90;6.10;;;25.90;38.60;;;;;;5106275;27;20054;-76
2022/03/27 11:54:16;;;;;;;21.40;6.38;;;25.70;38.40;;;;;;5108547;27;20035;-78
2022/03/27 11:56:52;;;;;;;20.70;5.43;;;25.60;38.20;;;;;;5104194;28;20092;-78
2022/03/27 11:59:19;;;;;;;22.27;5.72;;;25.50;40.90;;;;;;5106894;27;20039;-78
2022/03/27 12:01:49;;;;;;;17.70;5.45;;;25.00;37.10;;;;;;5131532;27;20050;-77
2022/03/27 12:04:16;;;;;;;22.85;5.70;;;24.60;39.40;;;;;;5111627;27;20071;-79
2022/03/27 12:06:42;;;;;;;20.80;5.20;;;24.10;39.10;;;;;;5106824;27;20044;-78
2022/03/27 12:09:08;;;;;;;21.13;5.88;;;24.10;40.70;;;;;;5107460;27;20504;-77
2022/03/27 12:11:34;;;;;;;18.48;4.82;;;24.20;40.40;;;;;;5111540;27;20044;-77
2022/03/27 12:14:08;;;;;;;16.80;5.00;;;24.40;39.70;;;;;;5106343;27;20039;-79
2022/03/27 12:16:35;;;;;;;16.63;5.10;;;24.50;38.90;;;;;;5109506;27;20043;-79
2022/03/27 12:19:12;;;;;;;18.92;4.75;;;24.30;39.30;;;;;;5137354;27;20442;-78
2022/03/27 12:21:45;;;;;;;19.33;5.00;;;24.30;39.70;;;;;;5108054;27;20436;-80
2022/03/27 12:24:11;;;;;;;17.13;5.25;;;24.30;39.70;;;;;;5109222;27;20130;-77
2022/03/27 12:29:51;;;;;;;21.33;4.78;;;24.30;39.70;;;;;;5043557;28;20041;-79
2022/03/27 12:32:22;;;;;;;19.40;5.40;;;24.20;39.30;;;;;;5046479;28;20053;-78
2022/03/27 12:34:49;;;;;;;17.93;4.97;;;24.30;39.00;;;;;;5072863;27;20059;-76
2022/03/27 12:37:17;;;;;;;21.87;5.67;;;24.10;40.00;;;;;;5107954;27;20124;-77
2022/03/27 12:40:03;;;;;;;23.73;5.60;;;23.90;39.30;;;;;;5113135;27;20089;-77
2022/03/27 12:42:39;;;;;;;17.00;4.87;;;23.80;39.60;;;;;;5115585;27;20051;-77
2022/03/27 12:45:08;;;;;;;20.30;4.70;;;23.70;40.10;;;;;;5104392;27;20043;-75
2022/03/27 12:47:38;;;;;;;17.83;4.73;;;23.70;38.90;;;;;;5113184;27;20042;-78
2022/03/27 12:50:05;;;;;;;17.10;4.67;;;23.40;37.30;;;;;;5105741;27;20035;-77
2022/03/27 12:52:31;;;;;;;20.67;5.17;;;23.00;39.30;;;;;;5104911;28;20134;-77